sensor_id;sensor_type;location;lat;lon;timestamp;P1;durP1;ratioP1;P2;durP2;ratioP2
21769;SDS011;11046;49.558;8.674;2023-03-09T00:00:36;3.97;;;2.80;;
21769;SDS011;11046;49.558;8.674;2023-03-09T00:03:36;4.70;;;2.83;;
21769;SDS011;11046;49.558;8.674;2023-03-09T00:06:37;3.40;;;2.40;;
21769;SDS011;11046;49.558;8.674;2023-03-09T00:09:38;4.07;;;2.70;;
21769;SDS011;11046;49.558;8.674;2023-03-09T00:12:38;4.97;;;2.87;;
21769;SDS011;11046;49.558;8.674;2023-03-09T00:15:39;4.50;;;2.50;;
21769;SDS011;11046;49.558;8.674;2023-03-09T00:18:40;7.07;;;3.27;;
21769;SDS011;11046;49.558;8.674;2023-03-09T00:21:41;8.53;;;2.80;;
21769;SDS011;11046;49.558;8.674;2023-03-09T00:24:48;5.20;;;2.40;;
21769;SDS011;11046;49.558;8.674;2023-03-09T00:27:49;4.10;;;2.20;;
21769;SDS011;11046;49.558;8.674;2023-03-09T00:30:51;3.80;;;1.70;;
21769;SDS011;11046;49.558;8.674;2023-03-09T00:33:51;6.07;;;2.00;;
21769;SDS011;11046;49.558;8.674;2023-03-09T00:36:52;6.23;;;2.20;;
21769;SDS011;11046;49.558;8.674;2023-03-09T00:39:53;4.10;;;2.20;;
21769;SDS011;11046;49.558;8.674;2023-03-09T00:42:53;5.03;;;2.73;;
21769;SDS011;11046;49.558;8.674;2023-03-09T00:45:54;5.67;;;3.00;;
21769;SDS011;11046;49.558;8.674;2023-03-09T00:48:54;5.50;;;3.80;;
21769;SDS011;11046;49.558;8.674;2023-03-09T00:51:55;6.03;;;3.00;;
21769;SDS011;11046;49.558;8.674;2023-03-09T00:54:56;6.93;;;3.20;;
21769;SDS011;11046;49.558;8.674;2023-03-09T00:57:57;5.50;;;3.10;;
21769;SDS011;11046;49.558;8.674;2023-03-09T01:00:59;8.17;;;3.10;;
21769;SDS011;11046;49.558;8.674;2023-03-09T01:03:59;5.40;;;2.80;;
21769;SDS011;11046;49.558;8.674;2023-03-09T01:07:00;5.87;;;3.33;;
21769;SDS011;11046;49.558;8.674;2023-03-09T01:10:01;6.50;;;3.43;;
21769;SDS011;11046;49.558;8.674;2023-03-09T01:13:03;9.10;;;3.47;;
21769;SDS011;11046;49.558;8.674;2023-03-09T01:16:04;9.30;;;3.83;;
21769;SDS011;11046;49.558;8.674;2023-03-09T01:19:05;6.87;;;3.03;;
21769;SDS011;11046;49.558;8.674;2023-03-09T01:22:06;8.13;;;2.50;;
21769;SDS011;11046;49.558;8.674;2023-03-09T01:25:06;10.27;;;2.13;;
21769;SDS011;11046;49.558;8.674;2023-03-09T01:28:07;4.93;;;2.10;;
21769;SDS011;11046;49.558;8.674;2023-03-09T01:31:09;5.93;;;1.80;;
21769;SDS011;11046;49.558;8.674;2023-03-09T01:34:14;2.10;;;1.30;;
21769;SDS011;11046;49.558;8.674;2023-03-09T01:37:15;4.73;;;1.30;;
21769;SDS011;11046;49.558;8.674;2023-03-09T01:40:16;2.53;;;1.27;;
21769;SDS011;11046;49.558;8.674;2023-03-09T01:43:30;3.60;;;1.00;;
21769;SDS011;11046;49.558;8.674;2023-03-09T01:46:36;0.87;;;0.80;;
21769;SDS011;11046;49.558;8.674;2023-03-09T01:49:43;1.33;;;0.70;;
21769;SDS011;11046;49.558;8.674;2023-03-09T01:52:49;2.30;;;0.80;;
21769;SDS011;11046;49.558;8.674;2023-03-09T01:55:55;2.30;;;0.90;;
21769;SDS011;11046;49.558;8.674;2023-03-09T01:58:57;1.33;;;0.80;;
21769;SDS011;11046;49.558;8.674;2023-03-09T02:02:01;0.93;;;0.60;;
21769;SDS011;11046;49.558;8.674;2023-03-09T02:05:03;1.60;;;0.80;;
21769;SDS011;11046;49.558;8.674;2023-03-09T02:08:09;4.53;;;1.07;;
21769;SDS011;11046;49.558;8.674;2023-03-09T02:11:13;5.03;;;1.10;;
21769;SDS011;11046;49.558;8.674;2023-03-09T02:14:14;2.17;;;1.10;;
21769;SDS011;11046;49.558;8.674;2023-03-09T02:17:15;4.03;;;1.20;;
21769;SDS011;11046;49.558;8.674;2023-03-09T02:23:29;4.23;;;1.20;;
21769;SDS011;11046;49.558;8.674;2023-03-09T02:26:45;1.83;;;1.23;;
21769;SDS011;11046;49.558;8.674;2023-03-09T02:29:50;1.83;;;1.20;;
21769;SDS011;11046;49.558;8.674;2023-03-09T02:33:00;3.20;;;1.30;;
21769;SDS011;11046;49.558;8.674;2023-03-09T02:36:11;3.63;;;1.30;;
21769;SDS011;11046;49.558;8.674;2023-03-09T02:42:29;2.77;;;1.80;;
21769;SDS011;11046;49.558;8.674;2023-03-09T02:45:31;4.17;;;1.90;;
21769;SDS011;11046;49.558;8.674;2023-03-09T02:48:33;4.60;;;1.90;;
21769;SDS011;11046;49.558;8.674;2023-03-09T02:51:33;7.57;;;1.60;;
21769;SDS011;11046;49.558;8.674;2023-03-09T02:54:34;3.20;;;1.50;;
21769;SDS011;11046;49.558;8.674;2023-03-09T02:57:35;3.07;;;1.50;;
21769;SDS011;11046;49.558;8.674;2023-03-09T03:00:36;3.60;;;1.40;;
21769;SDS011;11046;49.558;8.674;2023-03-09T03:03:37;4.20;;;1.67;;
21769;SDS011;11046;49.558;8.674;2023-03-09T03:06:38;3.83;;;1.53;;
21769;SDS011;11046;49.558;8.674;2023-03-09T03:09:39;6.53;;;1.60;;
21769;SDS011;11046;49.558;8.674;2023-03-09T03:12:41;6.20;;;1.97;;
21769;SDS011;11046;49.558;8.674;2023-03-09T03:15:42;4.10;;;1.73;;
21769;SDS011;11046;49.558;8.674;2023-03-09T03:18:43;3.87;;;1.80;;
21769;SDS011;11046;49.558;8.674;2023-03-09T03:21:44;5.80;;;1.60;;
21769;SDS011;11046;49.558;8.674;2023-03-09T03:24:44;2.97;;;1.60;;
21769;SDS011;11046;49.558;8.674;2023-03-09T03:27:45;3.37;;;1.90;;
21769;SDS011;11046;49.558;8.674;2023-03-09T03:30:50;4.23;;;1.80;;
21769;SDS011;11046;49.558;8.674;2023-03-09T03:33:52;4.53;;;1.60;;
21769;SDS011;11046;49.558;8.674;2023-03-09T03:36:54;4.67;;;1.70;;
21769;SDS011;11046;49.558;8.674;2023-03-09T03:39:57;2.60;;;1.50;;
21769;SDS011;11046;49.558;8.674;2023-03-09T03:42:58;8.20;;;1.87;;
21769;SDS011;11046;49.558;8.674;2023-03-09T03:45:59;4.27;;;1.77;;
21769;SDS011;11046;49.558;8.674;2023-03-09T03:49:00;1.90;;;1.50;;
21769;SDS011;11046;49.558;8.674;2023-03-09T03:52:03;2.83;;;1.20;;
21769;SDS011;11046;49.558;8.674;2023-03-09T03:55:04;3.97;;;1.50;;
21769;SDS011;11046;49.558;8.674;2023-03-09T03:58:06;2.50;;;1.60;;
21769;SDS011;11046;49.558;8.674;2023-03-09T04:01:09;3.13;;;1.33;;
21769;SDS011;11046;49.558;8.674;2023-03-09T04:04:10;4.27;;;1.70;;
21769;SDS011;11046;49.558;8.674;2023-03-09T04:07:18;3.03;;;2.10;;
21769;SDS011;11046;49.558;8.674;2023-03-09T04:10:19;3.90;;;2.23;;
21769;SDS011;11046;49.558;8.674;2023-03-09T04:13:21;6.13;;;2.67;;
21769;SDS011;11046;49.558;8.674;2023-03-09T04:16:22;3.10;;;2.50;;
21769;SDS011;11046;49.558;8.674;2023-03-09T04:19:23;3.83;;;2.50;;
21769;SDS011;11046;49.558;8.674;2023-03-09T04:22:23;3.93;;;2.50;;
21769;SDS011;11046;49.558;8.674;2023-03-09T04:25:24;3.77;;;2.40;;
21769;SDS011;11046;49.558;8.674;2023-03-09T04:28:25;3.57;;;2.33;;
21769;SDS011;11046;49.558;8.674;2023-03-09T04:31:28;3.37;;;2.03;;
21769;SDS011;11046;49.558;8.674;2023-03-09T04:34:29;3.90;;;2.17;;
21769;SDS011;11046;49.558;8.674;2023-03-09T04:37:30;4.93;;;2.20;;
21769;SDS011;11046;49.558;8.674;2023-03-09T04:40:32;4.40;;;2.50;;
21769;SDS011;11046;49.558;8.674;2023-03-09T04:43:33;6.03;;;2.50;;
21769;SDS011;11046;49.558;8.674;2023-03-09T04:46:34;4.47;;;2.10;;
21769;SDS011;11046;49.558;8.674;2023-03-09T04:49:38;4.57;;;2.33;;
21769;SDS011;11046;49.558;8.674;2023-03-09T04:52:40;4.60;;;2.10;;
21769;SDS011;11046;49.558;8.674;2023-03-09T04:55:41;6.77;;;2.20;;
21769;SDS011;11046;49.558;8.674;2023-03-09T04:58:46;9.60;;;2.00;;
21769;SDS011;11046;49.558;8.674;2023-03-09T05:01:46;5.90;;;2.30;;
21769;SDS011;11046;49.558;8.674;2023-03-09T05:04:53;6.03;;;2.33;;
21769;SDS011;11046;49.558;8.674;2023-03-09T05:07:54;5.77;;;2.63;;
21769;SDS011;11046;49.558;8.674;2023-03-09T05:10:55;5.93;;;2.40;;
21769;SDS011;11046;49.558;8.674;2023-03-09T05:13:56;8.43;;;2.50;;
21769;SDS011;11046;49.558;8.674;2023-03-09T05:16:58;6.87;;;2.50;;
21769;SDS011;11046;49.558;8.674;2023-03-09T05:20:00;4.53;;;2.37;;
21769;SDS011;11046;49.558;8.674;2023-03-09T05:23:01;8.17;;;3.27;;
21769;SDS011;11046;49.558;8.674;2023-03-09T05:26:04;7.20;;;2.70;;
21769;SDS011;11046;49.558;8.674;2023-03-09T05:29:07;7.60;;;2.30;;
21769;SDS011;11046;49.558;8.674;2023-03-09T05:32:10;9.83;;;2.67;;
21769;SDS011;11046;49.558;8.674;2023-03-09T05:35:12;4.70;;;2.00;;
21769;SDS011;11046;49.558;8.674;2023-03-09T05:38:13;7.17;;;2.60;;
21769;SDS011;11046;49.558;8.674;2023-03-09T05:41:14;6.87;;;2.13;;
21769;SDS011;11046;49.558;8.674;2023-03-09T05:44:15;5.97;;;1.90;;
21769;SDS011;11046;49.558;8.674;2023-03-09T05:47:16;5.70;;;2.00;;
21769;SDS011;11046;49.558;8.674;2023-03-09T05:50:19;6.87;;;2.10;;
21769;SDS011;11046;49.558;8.674;2023-03-09T05:53:20;5.37;;;2.10;;
21769;SDS011;11046;49.558;8.674;2023-03-09T05:56:22;3.87;;;1.83;;
21769;SDS011;11046;49.558;8.674;2023-03-09T05:59:26;7.93;;;2.50;;
21769;SDS011;11046;49.558;8.674;2023-03-09T06:02:27;6.97;;;2.90;;
21769;SDS011;11046;49.558;8.674;2023-03-09T06:05:28;12.27;;;3.20;;
21769;SDS011;11046;49.558;8.674;2023-03-09T06:08:29;6.57;;;2.37;;
21769;SDS011;11046;49.558;8.674;2023-03-09T06:11:33;9.73;;;2.20;;
21769;SDS011;11046;49.558;8.674;2023-03-09T06:14:34;6.03;;;2.60;;
21769;SDS011;11046;49.558;8.674;2023-03-09T06:17:36;9.80;;;3.20;;
21769;SDS011;11046;49.558;8.674;2023-03-09T06:20:38;11.77;;;3.17;;
21769;SDS011;11046;49.558;8.674;2023-03-09T06:23:39;12.93;;;2.60;;
21769;SDS011;11046;49.558;8.674;2023-03-09T06:26:45;11.67;;;2.97;;
21769;SDS011;11046;49.558;8.674;2023-03-09T06:29:49;13.53;;;3.30;;
21769;SDS011;11046;49.558;8.674;2023-03-09T06:32:50;12.00;;;2.90;;
21769;SDS011;11046;49.558;8.674;2023-03-09T06:35:53;20.93;;;4.00;;
21769;SDS011;11046;49.558;8.674;2023-03-09T06:38:54;15.47;;;4.20;;
21769;SDS011;11046;49.558;8.674;2023-03-09T06:42:00;16.73;;;3.53;;
21769;SDS011;11046;49.558;8.674;2023-03-09T06:45:12;15.77;;;3.80;;
21769;SDS011;11046;49.558;8.674;2023-03-09T06:48:13;14.20;;;3.43;;
21769;SDS011;11046;49.558;8.674;2023-03-09T06:51:15;16.47;;;3.90;;
21769;SDS011;11046;49.558;8.674;2023-03-09T06:54:17;16.10;;;3.20;;
21769;SDS011;11046;49.558;8.674;2023-03-09T06:57:26;14.57;;;2.67;;
21769;SDS011;11046;49.558;8.674;2023-03-09T07:00:27;12.70;;;3.03;;
21769;SDS011;11046;49.558;8.674;2023-03-09T07:03:31;12.07;;;2.63;;
21769;SDS011;11046;49.558;8.674;2023-03-09T07:06:31;13.83;;;3.13;;
21769;SDS011;11046;49.558;8.674;2023-03-09T07:09:33;11.80;;;2.47;;
21769;SDS011;11046;49.558;8.674;2023-03-09T07:12:33;14.23;;;3.20;;
21769;SDS011;11046;49.558;8.674;2023-03-09T07:15:35;17.37;;;2.97;;
21769;SDS011;11046;49.558;8.674;2023-03-09T07:18:36;9.13;;;2.60;;
21769;SDS011;11046;49.558;8.674;2023-03-09T07:21:36;15.70;;;2.77;;
21769;SDS011;11046;49.558;8.674;2023-03-09T07:24:37;12.23;;;2.30;;
21769;SDS011;11046;49.558;8.674;2023-03-09T07:27:38;8.53;;;2.40;;
21769;SDS011;11046;49.558;8.674;2023-03-09T07:30:38;11.03;;;2.17;;
21769;SDS011;11046;49.558;8.674;2023-03-09T07:33:39;12.00;;;2.70;;
21769;SDS011;11046;49.558;8.674;2023-03-09T07:36:40;13.47;;;2.67;;
21769;SDS011;11046;49.558;8.674;2023-03-09T07:39:41;11.33;;;2.50;;
21769;SDS011;11046;49.558;8.674;2023-03-09T07:42:41;14.80;;;2.30;;
21769;SDS011;11046;49.558;8.674;2023-03-09T07:45:59;10.90;;;2.77;;
21769;SDS011;11046;49.558;8.674;2023-03-09T07:49:00;12.97;;;2.27;;
21769;SDS011;11046;49.558;8.674;2023-03-09T07:52:01;9.37;;;2.30;;
21769;SDS011;11046;49.558;8.674;2023-03-09T07:55:02;11.53;;;2.93;;
21769;SDS011;11046;49.558;8.674;2023-03-09T07:58:03;12.13;;;2.70;;
21769;SDS011;11046;49.558;8.674;2023-03-09T08:01:05;10.47;;;2.40;;
21769;SDS011;11046;49.558;8.674;2023-03-09T08:04:07;12.70;;;2.50;;
21769;SDS011;11046;49.558;8.674;2023-03-09T08:07:07;15.47;;;2.90;;
21769;SDS011;11046;49.558;8.674;2023-03-09T08:10:08;8.83;;;2.90;;
21769;SDS011;11046;49.558;8.674;2023-03-09T08:13:09;12.03;;;2.77;;
21769;SDS011;11046;49.558;8.674;2023-03-09T08:16:10;11.10;;;2.80;;
21769;SDS011;11046;49.558;8.674;2023-03-09T08:19:11;10.80;;;2.47;;
21769;SDS011;11046;49.558;8.674;2023-03-09T08:22:12;11.33;;;2.57;;
21769;SDS011;11046;49.558;8.674;2023-03-09T08:25:12;9.77;;;2.23;;
21769;SDS011;11046;49.558;8.674;2023-03-09T08:28:13;10.40;;;3.07;;
21769;SDS011;11046;49.558;8.674;2023-03-09T08:31:15;8.77;;;2.20;;
21769;SDS011;11046;49.558;8.674;2023-03-09T08:34:17;9.93;;;2.97;;
21769;SDS011;11046;49.558;8.674;2023-03-09T08:37:19;11.60;;;2.77;;
21769;SDS011;11046;49.558;8.674;2023-03-09T08:40:20;8.27;;;2.83;;
21769;SDS011;11046;49.558;8.674;2023-03-09T08:43:20;11.53;;;2.73;;
21769;SDS011;11046;49.558;8.674;2023-03-09T08:46:21;9.47;;;2.30;;
21769;SDS011;11046;49.558;8.674;2023-03-09T08:49:21;12.03;;;2.90;;
21769;SDS011;11046;49.558;8.674;2023-03-09T08:52:22;10.67;;;2.77;;
21769;SDS011;11046;49.558;8.674;2023-03-09T08:55:23;11.87;;;3.00;;
21769;SDS011;11046;49.558;8.674;2023-03-09T08:58:23;7.87;;;2.30;;
21769;SDS011;11046;49.558;8.674;2023-03-09T09:01:24;11.70;;;2.60;;
21769;SDS011;11046;49.558;8.674;2023-03-09T09:04:24;11.53;;;2.47;;
21769;SDS011;11046;49.558;8.674;2023-03-09T09:07:25;13.63;;;2.50;;
21769;SDS011;11046;49.558;8.674;2023-03-09T09:10:26;9.40;;;2.57;;
21769;SDS011;11046;49.558;8.674;2023-03-09T09:13:26;9.43;;;2.47;;
21769;SDS011;11046;49.558;8.674;2023-03-09T09:16:27;7.03;;;1.97;;
21769;SDS011;11046;49.558;8.674;2023-03-09T09:19:29;7.77;;;2.50;;
21769;SDS011;11046;49.558;8.674;2023-03-09T09:22:30;11.50;;;2.90;;
21769;SDS011;11046;49.558;8.674;2023-03-09T09:25:30;10.20;;;2.70;;
21769;SDS011;11046;49.558;8.674;2023-03-09T09:28:31;14.03;;;4.20;;
21769;SDS011;11046;49.558;8.674;2023-03-09T09:31:32;11.27;;;2.40;;
21769;SDS011;11046;49.558;8.674;2023-03-09T09:34:35;11.73;;;2.93;;
21769;SDS011;11046;49.558;8.674;2023-03-09T09:37:36;5.97;;;2.40;;
21769;SDS011;11046;49.558;8.674;2023-03-09T09:40:37;10.67;;;2.60;;
21769;SDS011;11046;49.558;8.674;2023-03-09T09:43:39;10.70;;;2.60;;
21769;SDS011;11046;49.558;8.674;2023-03-09T09:46:41;7.17;;;2.50;;
21769;SDS011;11046;49.558;8.674;2023-03-09T09:49:43;12.83;;;2.43;;
21769;SDS011;11046;49.558;8.674;2023-03-09T09:52:59;12.70;;;2.93;;
21769;SDS011;11046;49.558;8.674;2023-03-09T09:56:05;13.77;;;2.47;;
21769;SDS011;11046;49.558;8.674;2023-03-09T09:59:13;10.93;;;2.67;;
21769;SDS011;11046;49.558;8.674;2023-03-09T10:05:42;12.13;;;2.73;;
21769;SDS011;11046;49.558;8.674;2023-03-09T10:08:58;15.63;;;2.60;;
21769;SDS011;11046;49.558;8.674;2023-03-09T10:12:01;8.23;;;2.40;;
21769;SDS011;11046;49.558;8.674;2023-03-09T10:15:09;15.30;;;3.20;;
21769;SDS011;11046;49.558;8.674;2023-03-09T10:18:29;12.77;;;2.70;;
21769;SDS011;11046;49.558;8.674;2023-03-09T10:21:35;13.33;;;3.13;;
21769;SDS011;11046;49.558;8.674;2023-03-09T10:24:54;9.40;;;2.60;;
21769;SDS011;11046;49.558;8.674;2023-03-09T10:27:59;11.13;;;3.27;;
21769;SDS011;11046;49.558;8.674;2023-03-09T10:31:09;10.53;;;2.80;;
21769;SDS011;11046;49.558;8.674;2023-03-09T10:34:23;13.30;;;2.60;;
21769;SDS011;11046;49.558;8.674;2023-03-09T10:37:27;11.47;;;2.50;;
21769;SDS011;11046;49.558;8.674;2023-03-09T10:40:41;10.97;;;3.13;;
21769;SDS011;11046;49.558;8.674;2023-03-09T10:43:44;14.43;;;3.27;;
21769;SDS011;11046;49.558;8.674;2023-03-09T10:46:57;11.87;;;3.40;;
21769;SDS011;11046;49.558;8.674;2023-03-09T10:50:07;12.87;;;3.93;;
21769;SDS011;11046;49.558;8.674;2023-03-09T10:53:23;12.47;;;3.20;;
21769;SDS011;11046;49.558;8.674;2023-03-09T10:56:42;12.87;;;3.20;;
21769;SDS011;11046;49.558;8.674;2023-03-09T10:59:48;16.47;;;2.80;;
21769;SDS011;11046;49.558;8.674;2023-03-09T11:02:56;14.17;;;2.77;;
21769;SDS011;11046;49.558;8.674;2023-03-09T11:09:12;11.47;;;3.07;;
21769;SDS011;11046;49.558;8.674;2023-03-09T11:18:28;15.63;;;2.57;;
21769;SDS011;11046;49.558;8.674;2023-03-09T11:21:29;10.97;;;2.13;;
21769;SDS011;11046;49.558;8.674;2023-03-09T11:24:32;9.43;;;2.33;;
21769;SDS011;11046;49.558;8.674;2023-03-09T11:27:37;6.83;;;1.63;;
21769;SDS011;11046;49.558;8.674;2023-03-09T11:30:41;7.20;;;1.97;;
21769;SDS011;11046;49.558;8.674;2023-03-09T11:33:42;6.07;;;1.80;;
21769;SDS011;11046;49.558;8.674;2023-03-09T11:42:59;4.00;;;1.10;;
21769;SDS011;11046;49.558;8.674;2023-03-09T11:46:04;5.63;;;1.40;;
21769;SDS011;11046;49.558;8.674;2023-03-09T11:49:08;3.00;;;1.00;;
21769;SDS011;11046;49.558;8.674;2023-03-09T11:52:17;4.83;;;1.50;;
21769;SDS011;11046;49.558;8.674;2023-03-09T11:55:40;7.03;;;1.40;;
21769;SDS011;11046;49.558;8.674;2023-03-09T11:58:47;7.25;;;1.75;;
21769;SDS011;11046;49.558;8.674;2023-03-09T12:01:56;8.57;;;1.77;;
21769;SDS011;11046;49.558;8.674;2023-03-09T12:05:01;4.97;;;1.50;;
21769;SDS011;11046;49.558;8.674;2023-03-09T12:08:15;5.75;;;1.48;;
21769;SDS011;11046;49.558;8.674;2023-03-09T12:11:38;5.95;;;1.50;;
21769;SDS011;11046;49.558;8.674;2023-03-09T12:18:27;10.70;;;1.92;;
21769;SDS011;11046;49.558;8.674;2023-03-09T12:21:37;6.55;;;1.58;;
21769;SDS011;11046;49.558;8.674;2023-03-09T12:24:59;5.07;;;1.23;;
21769;SDS011;11046;49.558;8.674;2023-03-09T12:28:12;7.57;;;1.40;;
21769;SDS011;11046;49.558;8.674;2023-03-09T12:31:34;4.75;;;1.40;;
21769;SDS011;11046;49.558;8.674;2023-03-09T12:34:50;3.35;;;1.17;;
21769;SDS011;11046;49.558;8.674;2023-03-09T12:38:04;9.00;;;1.80;;
21769;SDS011;11046;49.558;8.674;2023-03-09T12:48:20;6.32;;;1.40;;
21769;SDS011;11046;49.558;8.674;2023-03-09T12:51:31;6.72;;;1.70;;
21769;SDS011;11046;49.558;8.674;2023-03-09T12:54:40;6.07;;;1.40;;
21769;SDS011;11046;49.558;8.674;2023-03-09T12:57:47;4.18;;;1.50;;
21769;SDS011;11046;49.558;8.674;2023-03-09T13:00:53;5.03;;;1.60;;
21769;SDS011;11046;49.558;8.674;2023-03-09T13:04:09;3.22;;;0.93;;
21769;SDS011;11046;49.558;8.674;2023-03-09T13:07:16;1.30;;;0.80;;
21769;SDS011;11046;49.558;8.674;2023-03-09T13:10:26;3.22;;;0.85;;
21769;SDS011;11046;49.558;8.674;2023-03-09T13:13:35;2.35;;;0.95;;
21769;SDS011;11046;49.558;8.674;2023-03-09T13:17:02;2.63;;;0.70;;
21769;SDS011;11046;49.558;8.674;2023-03-09T13:23:20;2.42;;;0.85;;
21769;SDS011;11046;49.558;8.674;2023-03-09T13:26:21;0.40;;;0.40;;
21769;SDS011;11046;49.558;8.674;2023-03-09T13:29:29;2.25;;;0.70;;
21769;SDS011;11046;49.558;8.674;2023-03-09T13:32:46;2.40;;;0.63;;
21769;SDS011;11046;49.558;8.674;2023-03-09T13:36:07;1.30;;;0.75;;
21769;SDS011;11046;49.558;8.674;2023-03-09T13:39:25;3.10;;;0.75;;
21769;SDS011;11046;49.558;8.674;2023-03-09T13:42:27;3.55;;;1.08;;
21769;SDS011;11046;49.558;8.674;2023-03-09T13:45:29;4.00;;;1.00;;
21769;SDS011;11046;49.558;8.674;2023-03-09T13:48:33;5.45;;;1.05;;
21769;SDS011;11046;49.558;8.674;2023-03-09T13:51:42;5.38;;;1.30;;
21769;SDS011;11046;49.558;8.674;2023-03-09T13:54:52;4.18;;;1.20;;
21769;SDS011;11046;49.558;8.674;2023-03-09T14:01:30;6.63;;;1.45;;
21769;SDS011;11046;49.558;8.674;2023-03-09T14:04:31;3.85;;;1.70;;
21769;SDS011;11046;49.558;8.674;2023-03-09T14:07:35;5.80;;;1.30;;
21769;SDS011;11046;49.558;8.674;2023-03-09T14:10:41;2.85;;;1.23;;
21769;SDS011;11046;49.558;8.674;2023-03-09T14:13:44;3.67;;;1.05;;
21769;SDS011;11046;49.558;8.674;2023-03-09T14:17:04;4.70;;;1.30;;
21769;SDS011;11046;49.558;8.674;2023-03-09T14:20:17;5.75;;;1.40;;
21769;SDS011;11046;49.558;8.674;2023-03-09T14:23:30;5.75;;;1.38;;
21769;SDS011;11046;49.558;8.674;2023-03-09T14:26:39;7.50;;;1.55;;
21769;SDS011;11046;49.558;8.674;2023-03-09T14:29:40;4.35;;;1.27;;
21769;SDS011;11046;49.558;8.674;2023-03-09T14:32:55;6.47;;;1.27;;
21769;SDS011;11046;49.558;8.674;2023-03-09T14:42:31;5.25;;;1.40;;
21769;SDS011;11046;49.558;8.674;2023-03-09T14:45:35;12.02;;;1.38;;
21769;SDS011;11046;49.558;8.674;2023-03-09T14:48:35;4.78;;;1.27;;
21769;SDS011;11046;49.558;8.674;2023-03-09T14:51:36;4.95;;;1.25;;
21769;SDS011;11046;49.558;8.674;2023-03-09T14:54:37;5.78;;;1.48;;
21769;SDS011;11046;49.558;8.674;2023-03-09T14:57:38;8.82;;;1.67;;
21769;SDS011;11046;49.558;8.674;2023-03-09T15:00:39;7.53;;;1.70;;
21769;SDS011;11046;49.558;8.674;2023-03-09T15:03:41;7.22;;;2.38;;
21769;SDS011;11046;49.558;8.674;2023-03-09T15:06:42;5.80;;;1.33;;
21769;SDS011;11046;49.558;8.674;2023-03-09T15:09:43;7.90;;;1.50;;
21769;SDS011;11046;49.558;8.674;2023-03-09T15:12:44;10.77;;;1.70;;
21769;SDS011;11046;49.558;8.674;2023-03-09T15:15:46;10.48;;;2.13;;
21769;SDS011;11046;49.558;8.674;2023-03-09T15:18:46;9.32;;;2.33;;
21769;SDS011;11046;49.558;8.674;2023-03-09T15:21:47;8.27;;;1.73;;
21769;SDS011;11046;49.558;8.674;2023-03-09T15:24:51;10.18;;;2.33;;
21769;SDS011;11046;49.558;8.674;2023-03-09T15:27:51;11.23;;;2.15;;
21769;SDS011;11046;49.558;8.674;2023-03-09T15:30:52;11.30;;;2.08;;
21769;SDS011;11046;49.558;8.674;2023-03-09T15:33:52;12.27;;;2.40;;
21769;SDS011;11046;49.558;8.674;2023-03-09T15:36:53;8.80;;;1.88;;
21769;SDS011;11046;49.558;8.674;2023-03-09T15:39:53;7.30;;;1.88;;
21769;SDS011;11046;49.558;8.674;2023-03-09T15:42:54;9.77;;;1.83;;
21769;SDS011;11046;49.558;8.674;2023-03-09T15:45:55;10.70;;;2.38;;
21769;SDS011;11046;49.558;8.674;2023-03-09T15:48:55;7.37;;;2.20;;
21769;SDS011;11046;49.558;8.674;2023-03-09T15:51:56;8.68;;;2.13;;
21769;SDS011;11046;49.558;8.674;2023-03-09T15:54:56;7.40;;;1.70;;
21769;SDS011;11046;49.558;8.674;2023-03-09T15:57:57;9.85;;;2.28;;
21769;SDS011;11046;49.558;8.674;2023-03-09T16:00:59;9.90;;;2.20;;
21769;SDS011;11046;49.558;8.674;2023-03-09T16:04:01;8.73;;;2.17;;
21769;SDS011;11046;49.558;8.674;2023-03-09T16:07:01;8.32;;;1.90;;
21769;SDS011;11046;49.558;8.674;2023-03-09T16:10:02;8.55;;;1.95;;
21769;SDS011;11046;49.558;8.674;2023-03-09T16:13:03;15.37;;;2.47;;
21769;SDS011;11046;49.558;8.674;2023-03-09T16:16:04;8.77;;;2.43;;
21769;SDS011;11046;49.558;8.674;2023-03-09T16:19:05;9.25;;;1.98;;
21769;SDS011;11046;49.558;8.674;2023-03-09T16:22:05;13.55;;;2.13;;
21769;SDS011;11046;49.558;8.674;2023-03-09T16:25:06;10.97;;;2.17;;
21769;SDS011;11046;49.558;8.674;2023-03-09T16:28:07;12.23;;;3.38;;
21769;SDS011;11046;49.558;8.674;2023-03-09T16:31:12;20.35;;;2.72;;
21769;SDS011;11046;49.558;8.674;2023-03-09T16:34:29;15.00;;;3.05;;
21769;SDS011;11046;49.558;8.674;2023-03-09T16:37:30;12.73;;;2.03;;
21769;SDS011;11046;49.558;8.674;2023-03-09T16:40:31;9.33;;;2.27;;
21769;SDS011;11046;49.558;8.674;2023-03-09T16:43:33;14.87;;;2.40;;
21769;SDS011;11046;49.558;8.674;2023-03-09T16:46:34;12.57;;;2.50;;
21769;SDS011;11046;49.558;8.674;2023-03-09T16:49:35;18.75;;;2.50;;
21769;SDS011;11046;49.558;8.674;2023-03-09T16:52:35;18.05;;;2.83;;
21769;SDS011;11046;49.558;8.674;2023-03-09T16:55:36;14.63;;;2.97;;
21769;SDS011;11046;49.558;8.674;2023-03-09T16:58:37;13.73;;;3.50;;
21769;SDS011;11046;49.558;8.674;2023-03-09T17:01:38;11.65;;;2.60;;
21769;SDS011;11046;49.558;8.674;2023-03-09T17:04:38;14.13;;;3.00;;
21769;SDS011;11046;49.558;8.674;2023-03-09T17:07:39;13.82;;;3.20;;
21769;SDS011;11046;49.558;8.674;2023-03-09T17:10:41;15.77;;;2.97;;
21769;SDS011;11046;49.558;8.674;2023-03-09T17:13:47;15.85;;;2.83;;
21769;SDS011;11046;49.558;8.674;2023-03-09T17:16:49;16.75;;;3.47;;
21769;SDS011;11046;49.558;8.674;2023-03-09T17:19:53;12.47;;;3.07;;
21769;SDS011;11046;49.558;8.674;2023-03-09T17:22:54;18.43;;;4.07;;
21769;SDS011;11046;49.558;8.674;2023-03-09T17:25:54;13.45;;;3.50;;
21769;SDS011;11046;49.558;8.674;2023-03-09T17:28:55;10.40;;;3.17;;
21769;SDS011;11046;49.558;8.674;2023-03-09T17:31:55;14.90;;;2.70;;
21769;SDS011;11046;49.558;8.674;2023-03-09T17:34:56;17.27;;;3.03;;
21769;SDS011;11046;49.558;8.674;2023-03-09T17:37:57;10.90;;;2.77;;
21769;SDS011;11046;49.558;8.674;2023-03-09T17:40:58;15.53;;;3.40;;
21769;SDS011;11046;49.558;8.674;2023-03-09T17:43:59;13.13;;;4.03;;
21769;SDS011;11046;49.558;8.674;2023-03-09T17:47:00;13.33;;;4.27;;
21769;SDS011;11046;49.558;8.674;2023-03-09T17:50:01;22.10;;;5.30;;
21769;SDS011;11046;49.558;8.674;2023-03-09T17:53:02;16.40;;;4.73;;
21769;SDS011;11046;49.558;8.674;2023-03-09T17:56:03;10.57;;;3.33;;
21769;SDS011;11046;49.558;8.674;2023-03-09T17:59:05;13.87;;;3.63;;
21769;SDS011;11046;49.558;8.674;2023-03-09T18:02:06;16.53;;;3.83;;
21769;SDS011;11046;49.558;8.674;2023-03-09T18:05:08;16.97;;;3.57;;
21769;SDS011;11046;49.558;8.674;2023-03-09T18:08:09;14.40;;;3.87;;
21769;SDS011;11046;49.558;8.674;2023-03-09T18:11:11;13.00;;;4.30;;
21769;SDS011;11046;49.558;8.674;2023-03-09T18:14:13;15.50;;;3.77;;
21769;SDS011;11046;49.558;8.674;2023-03-09T18:17:14;16.97;;;3.73;;
21769;SDS011;11046;49.558;8.674;2023-03-09T18:20:15;15.73;;;2.67;;
21769;SDS011;11046;49.558;8.674;2023-03-09T18:23:16;9.63;;;3.03;;
21769;SDS011;11046;49.558;8.674;2023-03-09T18:26:18;20.57;;;3.17;;
21769;SDS011;11046;49.558;8.674;2023-03-09T18:29:21;9.00;;;2.40;;
21769;SDS011;11046;49.558;8.674;2023-03-09T18:32:22;9.90;;;2.80;;
21769;SDS011;11046;49.558;8.674;2023-03-09T18:35:23;12.77;;;2.93;;
21769;SDS011;11046;49.558;8.674;2023-03-09T18:38:23;14.00;;;2.97;;
21769;SDS011;11046;49.558;8.674;2023-03-09T18:41:24;15.53;;;3.27;;
21769;SDS011;11046;49.558;8.674;2023-03-09T18:44:24;19.87;;;3.60;;
21769;SDS011;11046;49.558;8.674;2023-03-09T18:47:25;15.73;;;3.17;;
21769;SDS011;11046;49.558;8.674;2023-03-09T18:50:26;8.57;;;2.33;;
21769;SDS011;11046;49.558;8.674;2023-03-09T18:53:27;10.10;;;2.50;;
21769;SDS011;11046;49.558;8.674;2023-03-09T18:56:28;13.30;;;2.50;;
21769;SDS011;11046;49.558;8.674;2023-03-09T18:59:29;9.50;;;2.40;;
21769;SDS011;11046;49.558;8.674;2023-03-09T19:02:30;11.17;;;2.80;;
21769;SDS011;11046;49.558;8.674;2023-03-09T19:05:31;15.27;;;3.03;;
21769;SDS011;11046;49.558;8.674;2023-03-09T19:08:32;9.73;;;2.83;;